sensor_id;sensor_type;location;lat;lon;timestamp;P1;durP1;ratioP1;P2;durP2;ratioP2
6205;SDS011;3136;48.788;9.772;2022-12-16T00:01:10;29.53;;;16.67;;
6205;SDS011;3136;48.788;9.772;2022-12-16T00:03:38;35.97;;;17.53;;
6205;SDS011;3136;48.788;9.772;2022-12-16T00:06:05;33.33;;;17.07;;
6205;SDS011;3136;48.788;9.772;2022-12-16T00:08:32;31.60;;;17.20;;
6205;SDS011;3136;48.788;9.772;2022-12-16T00:11:00;30.90;;;16.93;;
6205;SDS011;3136;48.788;9.772;2022-12-16T00:13:26;34.40;;;17.40;;
6205;SDS011;3136;48.788;9.772;2022-12-16T00:15:53;30.90;;;17.20;;
6205;SDS011;3136;48.788;9.772;2022-12-16T00:18:18;30.73;;;17.63;;
6205;SDS011;3136;48.788;9.772;2022-12-16T00:20:48;33.03;;;16.67;;
6205;SDS011;3136;48.788;9.772;2022-12-16T00:23:16;32.63;;;16.37;;
6205;SDS011;3136;48.788;9.772;2022-12-16T00:25:42;31.87;;;16.87;;
6205;SDS011;3136;48.788;9.772;2022-12-16T00:28:08;31.17;;;16.33;;
6205;SDS011;3136;48.788;9.772;2022-12-16T00:30:35;34.07;;;17.27;;
6205;SDS011;3136;48.788;9.772;2022-12-16T00:33:00;30.90;;;16.37;;
6205;SDS011;3136;48.788;9.772;2022-12-16T00:35:26;31.50;;;16.53;;
6205;SDS011;3136;48.788;9.772;2022-12-16T00:37:52;29.87;;;15.73;;
6205;SDS011;3136;48.788;9.772;2022-12-16T00:40:17;30.90;;;15.93;;
6205;SDS011;3136;48.788;9.772;2022-12-16T00:42:43;32.93;;;15.30;;
6205;SDS011;3136;48.788;9.772;2022-12-16T00:45:09;31.23;;;15.63;;
6205;SDS011;3136;48.788;9.772;2022-12-16T00:47:35;33.07;;;16.67;;
6205;SDS011;3136;48.788;9.772;2022-12-16T00:50:01;28.23;;;15.57;;
6205;SDS011;3136;48.788;9.772;2022-12-16T00:52:27;32.60;;;15.57;;
6205;SDS011;3136;48.788;9.772;2022-12-16T00:54:52;29.13;;;15.53;;
6205;SDS011;3136;48.788;9.772;2022-12-16T00:57:18;28.20;;;15.23;;
6205;SDS011;3136;48.788;9.772;2022-12-16T00:59:44;29.53;;;15.73;;
6205;SDS011;3136;48.788;9.772;2022-12-16T01:02:09;29.50;;;16.33;;
6205;SDS011;3136;48.788;9.772;2022-12-16T01:04:35;30.33;;;15.87;;
6205;SDS011;3136;48.788;9.772;2022-12-16T01:07:01;28.93;;;15.70;;
6205;SDS011;3136;48.788;9.772;2022-12-16T01:09:26;29.50;;;15.40;;
6205;SDS011;3136;48.788;9.772;2022-12-16T01:11:52;30.53;;;15.60;;
6205;SDS011;3136;48.788;9.772;2022-12-16T01:14:18;29.30;;;15.40;;
6205;SDS011;3136;48.788;9.772;2022-12-16T01:16:43;28.43;;;15.47;;
6205;SDS011;3136;48.788;9.772;2022-12-16T01:19:09;30.67;;;15.90;;
6205;SDS011;3136;48.788;9.772;2022-12-16T01:21:35;27.73;;;15.23;;
6205;SDS011;3136;48.788;9.772;2022-12-16T01:24:01;28.23;;;15.30;;
6205;SDS011;3136;48.788;9.772;2022-12-16T01:26:27;29.67;;;15.47;;
6205;SDS011;3136;48.788;9.772;2022-12-16T01:28:52;28.27;;;15.90;;
6205;SDS011;3136;48.788;9.772;2022-12-16T01:31:18;26.27;;;15.17;;
6205;SDS011;3136;48.788;9.772;2022-12-16T01:33:44;29.87;;;16.00;;
6205;SDS011;3136;48.788;9.772;2022-12-16T01:36:10;31.07;;;15.53;;
6205;SDS011;3136;48.788;9.772;2022-12-16T01:38:37;31.57;;;16.20;;
6205;SDS011;3136;48.788;9.772;2022-12-16T01:41:03;31.67;;;16.27;;
6205;SDS011;3136;48.788;9.772;2022-12-16T01:43:33;34.13;;;16.97;;
6205;SDS011;3136;48.788;9.772;2022-12-16T01:54:04;32.93;;;17.50;;
6205;SDS011;3136;48.788;9.772;2022-12-16T01:56:37;33.37;;;16.93;;
6205;SDS011;3136;48.788;9.772;2022-12-16T01:59:06;31.37;;;16.37;;
6205;SDS011;3136;48.788;9.772;2022-12-16T02:01:32;30.90;;;16.47;;
6205;SDS011;3136;48.788;9.772;2022-12-16T02:03:59;32.93;;;16.83;;
6205;SDS011;3136;48.788;9.772;2022-12-16T02:06:26;30.87;;;16.53;;
6205;SDS011;3136;48.788;9.772;2022-12-16T02:08:54;30.37;;;16.80;;
6205;SDS011;3136;48.788;9.772;2022-12-16T02:11:38;33.87;;;16.87;;
6205;SDS011;3136;48.788;9.772;2022-12-16T02:17:10;29.63;;;15.63;;
6205;SDS011;3136;48.788;9.772;2022-12-16T02:25:42;33.13;;;16.13;;
6205;SDS011;3136;48.788;9.772;2022-12-16T02:28:41;31.73;;;16.00;;
6205;SDS011;3136;48.788;9.772;2022-12-16T02:37:04;28.73;;;15.50;;
6205;SDS011;3136;48.788;9.772;2022-12-16T02:39:51;30.30;;;15.87;;
6205;SDS011;3136;48.788;9.772;2022-12-16T02:42:29;31.63;;;15.87;;
6205;SDS011;3136;48.788;9.772;2022-12-16T02:45:21;30.77;;;16.13;;
6205;SDS011;3136;48.788;9.772;2022-12-16T02:47:50;29.77;;;15.60;;
6205;SDS011;3136;48.788;9.772;2022-12-16T02:52:41;31.50;;;16.40;;
6205;SDS011;3136;48.788;9.772;2022-12-16T02:55:07;30.87;;;16.47;;
6205;SDS011;3136;48.788;9.772;2022-12-16T03:00:22;31.27;;;18.10;;
6205;SDS011;3136;48.788;9.772;2022-12-16T03:02:53;32.27;;;17.43;;
6205;SDS011;3136;48.788;9.772;2022-12-16T03:05:32;31.67;;;16.33;;
6205;SDS011;3136;48.788;9.772;2022-12-16T03:08:06;33.50;;;17.90;;
6205;SDS011;3136;48.788;9.772;2022-12-16T03:10:37;35.37;;;17.73;;
6205;SDS011;3136;48.788;9.772;2022-12-16T03:13:14;37.93;;;18.30;;
6205;SDS011;3136;48.788;9.772;2022-12-16T03:15:43;34.40;;;18.57;;
6205;SDS011;3136;48.788;9.772;2022-12-16T03:18:12;34.67;;;18.17;;
6205;SDS011;3136;48.788;9.772;2022-12-16T03:20:45;38.77;;;18.97;;
6205;SDS011;3136;48.788;9.772;2022-12-16T03:23:26;33.90;;;19.33;;
6205;SDS011;3136;48.788;9.772;2022-12-16T03:25:55;36.57;;;19.27;;
6205;SDS011;3136;48.788;9.772;2022-12-16T03:31:18;37.77;;;19.67;;
6205;SDS011;3136;48.788;9.772;2022-12-16T03:34:09;34.37;;;18.80;;
6205;SDS011;3136;48.788;9.772;2022-12-16T03:36:53;36.33;;;19.10;;
6205;SDS011;3136;48.788;9.772;2022-12-16T03:39:24;34.17;;;18.30;;
6205;SDS011;3136;48.788;9.772;2022-12-16T03:41:51;39.47;;;19.97;;
6205;SDS011;3136;48.788;9.772;2022-12-16T03:44:21;38.73;;;20.20;;
6205;SDS011;3136;48.788;9.772;2022-12-16T03:46:49;35.47;;;18.60;;
6205;SDS011;3136;48.788;9.772;2022-12-16T03:49:15;37.60;;;20.13;;
6205;SDS011;3136;48.788;9.772;2022-12-16T03:51:40;40.57;;;21.33;;
6205;SDS011;3136;48.788;9.772;2022-12-16T03:54:06;37.07;;;20.60;;
6205;SDS011;3136;48.788;9.772;2022-12-16T03:56:32;39.07;;;20.03;;
6205;SDS011;3136;48.788;9.772;2022-12-16T03:58:57;39.23;;;20.00;;
6205;SDS011;3136;48.788;9.772;2022-12-16T04:01:23;39.83;;;20.30;;
6205;SDS011;3136;48.788;9.772;2022-12-16T04:03:49;37.70;;;19.80;;
6205;SDS011;3136;48.788;9.772;2022-12-16T04:06:14;39.03;;;20.07;;
6205;SDS011;3136;48.788;9.772;2022-12-16T04:08:42;40.93;;;20.63;;
6205;SDS011;3136;48.788;9.772;2022-12-16T04:11:12;36.60;;;20.10;;
6205;SDS011;3136;48.788;9.772;2022-12-16T04:13:57;37.37;;;19.87;;
6205;SDS011;3136;48.788;9.772;2022-12-16T04:16:42;37.70;;;20.27;;
6205;SDS011;3136;48.788;9.772;2022-12-16T04:19:27;39.17;;;20.47;;
6205;SDS011;3136;48.788;9.772;2022-12-16T04:22:17;43.20;;;20.17;;
6205;SDS011;3136;48.788;9.772;2022-12-16T04:25:06;40.07;;;19.80;;
6205;SDS011;3136;48.788;9.772;2022-12-16T04:27:34;41.53;;;20.50;;
6205;SDS011;3136;48.788;9.772;2022-12-16T04:30:00;39.67;;;19.87;;
6205;SDS011;3136;48.788;9.772;2022-12-16T04:32:47;44.00;;;21.87;;
6205;SDS011;3136;48.788;9.772;2022-12-16T04:35:41;42.40;;;20.83;;
6205;SDS011;3136;48.788;9.772;2022-12-16T04:38:25;44.23;;;21.20;;
6205;SDS011;3136;48.788;9.772;2022-12-16T04:41:09;40.00;;;20.43;;
6205;SDS011;3136;48.788;9.772;2022-12-16T04:43:53;36.87;;;20.57;;
6205;SDS011;3136;48.788;9.772;2022-12-16T04:46:37;42.13;;;21.73;;
6205;SDS011;3136;48.788;9.772;2022-12-16T04:49:21;44.43;;;22.53;;
6205;SDS011;3136;48.788;9.772;2022-12-16T04:52:05;39.53;;;21.00;;
6205;SDS011;3136;48.788;9.772;2022-12-16T04:54:50;47.37;;;21.77;;
6205;SDS011;3136;48.788;9.772;2022-12-16T04:57:34;42.03;;;20.60;;
6205;SDS011;3136;48.788;9.772;2022-12-16T05:00:18;44.40;;;22.10;;
6205;SDS011;3136;48.788;9.772;2022-12-16T05:03:02;44.43;;;22.27;;
6205;SDS011;3136;48.788;9.772;2022-12-16T05:05:46;43.60;;;21.43;;
6205;SDS011;3136;48.788;9.772;2022-12-16T05:08:30;41.40;;;20.53;;
6205;SDS011;3136;48.788;9.772;2022-12-16T05:11:14;39.73;;;19.97;;
6205;SDS011;3136;48.788;9.772;2022-12-16T05:13:58;40.70;;;19.87;;
6205;SDS011;3136;48.788;9.772;2022-12-16T05:16:42;37.93;;;19.77;;
6205;SDS011;3136;48.788;9.772;2022-12-16T05:19:26;37.20;;;19.40;;
6205;SDS011;3136;48.788;9.772;2022-12-16T05:22:11;41.37;;;20.90;;
6205;SDS011;3136;48.788;9.772;2022-12-16T05:24:55;45.87;;;21.90;;
6205;SDS011;3136;48.788;9.772;2022-12-16T05:27:39;42.70;;;20.07;;
6205;SDS011;3136;48.788;9.772;2022-12-16T05:30:24;41.20;;;20.47;;
6205;SDS011;3136;48.788;9.772;2022-12-16T05:33:08;38.03;;;19.10;;
6205;SDS011;3136;48.788;9.772;2022-12-16T05:35:52;37.53;;;20.17;;
6205;SDS011;3136;48.788;9.772;2022-12-16T05:38:36;36.60;;;19.37;;
6205;SDS011;3136;48.788;9.772;2022-12-16T05:41:20;37.63;;;20.33;;
6205;SDS011;3136;48.788;9.772;2022-12-16T05:44:04;37.77;;;20.30;;
6205;SDS011;3136;48.788;9.772;2022-12-16T05:46:48;44.03;;;20.13;;
6205;SDS011;3136;48.788;9.772;2022-12-16T05:49:32;46.23;;;21.30;;
6205;SDS011;3136;48.788;9.772;2022-12-16T05:52:16;40.17;;;20.70;;
6205;SDS011;3136;48.788;9.772;2022-12-16T05:55:00;46.87;;;22.40;;
6205;SDS011;3136;48.788;9.772;2022-12-16T05:57:47;45.00;;;21.13;;
6205;SDS011;3136;48.788;9.772;2022-12-16T06:00:32;46.67;;;20.77;;
6205;SDS011;3136;48.788;9.772;2022-12-16T06:03:16;41.50;;;20.13;;
6205;SDS011;3136;48.788;9.772;2022-12-16T06:06:00;37.07;;;19.97;;
6205;SDS011;3136;48.788;9.772;2022-12-16T06:08:44;43.53;;;20.43;;
6205;SDS011;3136;48.788;9.772;2022-12-16T06:11:28;41.00;;;20.60;;
6205;SDS011;3136;48.788;9.772;2022-12-16T06:14:12;41.07;;;20.60;;
6205;SDS011;3136;48.788;9.772;2022-12-16T06:16:56;37.97;;;20.67;;
6205;SDS011;3136;48.788;9.772;2022-12-16T06:19:40;37.17;;;19.33;;
6205;SDS011;3136;48.788;9.772;2022-12-16T06:22:24;37.50;;;19.13;;
6205;SDS011;3136;48.788;9.772;2022-12-16T06:25:08;39.50;;;18.53;;
6205;SDS011;3136;48.788;9.772;2022-12-16T06:27:53;41.90;;;19.50;;
6205;SDS011;3136;48.788;9.772;2022-12-16T06:30:37;39.97;;;19.57;;
6205;SDS011;3136;48.788;9.772;2022-12-16T06:33:22;40.17;;;20.03;;
6205;SDS011;3136;48.788;9.772;2022-12-16T06:36:06;40.20;;;20.07;;
6205;SDS011;3136;48.788;9.772;2022-12-16T06:38:51;41.90;;;20.77;;
6205;SDS011;3136;48.788;9.772;2022-12-16T06:41:35;44.87;;;19.50;;
6205;SDS011;3136;48.788;9.772;2022-12-16T06:44:19;35.43;;;19.20;;
6205;SDS011;3136;48.788;9.772;2022-12-16T06:47:03;39.37;;;20.50;;
6205;SDS011;3136;48.788;9.772;2022-12-16T06:49:48;46.30;;;20.93;;
6205;SDS011;3136;48.788;9.772;2022-12-16T06:52:32;46.93;;;20.33;;
6205;SDS011;3136;48.788;9.772;2022-12-16T06:55:16;41.13;;;20.83;;
6205;SDS011;3136;48.788;9.772;2022-12-16T06:58:00;44.43;;;21.47;;
6205;SDS011;3136;48.788;9.772;2022-12-16T07:00:45;40.47;;;21.03;;
6205;SDS011;3136;48.788;9.772;2022-12-16T07:03:29;44.97;;;22.03;;
6205;SDS011;3136;48.788;9.772;2022-12-16T07:06:13;45.40;;;21.77;;
6205;SDS011;3136;48.788;9.772;2022-12-16T07:08:57;40.67;;;20.13;;
6205;SDS011;3136;48.788;9.772;2022-12-16T07:11:41;39.37;;;20.47;;
6205;SDS011;3136;48.788;9.772;2022-12-16T07:14:25;41.07;;;20.80;;
6205;SDS011;3136;48.788;9.772;2022-12-16T07:17:10;39.87;;;19.13;;
6205;SDS011;3136;48.788;9.772;2022-12-16T07:19:54;41.93;;;21.13;;
6205;SDS011;3136;48.788;9.772;2022-12-16T07:22:41;37.23;;;19.53;;
6205;SDS011;3136;48.788;9.772;2022-12-16T07:25:26;47.70;;;19.77;;
6205;SDS011;3136;48.788;9.772;2022-12-16T07:28:10;37.80;;;19.63;;
6205;SDS011;3136;48.788;9.772;2022-12-16T07:30:54;38.83;;;19.60;;
6205;SDS011;3136;48.788;9.772;2022-12-16T07:33:38;44.90;;;20.80;;
6205;SDS011;3136;48.788;9.772;2022-12-16T07:36:22;39.70;;;19.93;;
6205;SDS011;3136;48.788;9.772;2022-12-16T07:39:06;42.60;;;20.50;;
6205;SDS011;3136;48.788;9.772;2022-12-16T07:41:50;39.90;;;20.23;;
6205;SDS011;3136;48.788;9.772;2022-12-16T07:44:34;39.83;;;19.57;;
6205;SDS011;3136;48.788;9.772;2022-12-16T07:47:19;37.33;;;19.33;;
6205;SDS011;3136;48.788;9.772;2022-12-16T07:50:03;40.00;;;20.07;;
6205;SDS011;3136;48.788;9.772;2022-12-16T07:52:52;36.23;;;18.97;;
6205;SDS011;3136;48.788;9.772;2022-12-16T07:55:37;40.20;;;19.00;;
6205;SDS011;3136;48.788;9.772;2022-12-16T07:58:21;37.47;;;19.93;;
6205;SDS011;3136;48.788;9.772;2022-12-16T08:01:05;35.63;;;17.80;;
6205;SDS011;3136;48.788;9.772;2022-12-16T08:03:49;38.37;;;19.07;;
6205;SDS011;3136;48.788;9.772;2022-12-16T08:06:33;31.30;;;17.43;;
6205;SDS011;3136;48.788;9.772;2022-12-16T08:09:17;33.90;;;17.07;;
6205;SDS011;3136;48.788;9.772;2022-12-16T08:12:01;28.13;;;14.10;;
6205;SDS011;3136;48.788;9.772;2022-12-16T08:14:45;28.33;;;14.67;;
6205;SDS011;3136;48.788;9.772;2022-12-16T08:17:30;26.70;;;14.40;;
6205;SDS011;3136;48.788;9.772;2022-12-16T08:20:14;21.60;;;13.23;;
6205;SDS011;3136;48.788;9.772;2022-12-16T08:22:58;22.67;;;13.83;;
6205;SDS011;3136;48.788;9.772;2022-12-16T08:25:42;24.93;;;13.97;;
6205;SDS011;3136;48.788;9.772;2022-12-16T08:28:26;26.53;;;13.97;;
6205;SDS011;3136;48.788;9.772;2022-12-16T08:31:10;27.13;;;14.20;;
6205;SDS011;3136;48.788;9.772;2022-12-16T08:33:54;27.63;;;14.30;;
6205;SDS011;3136;48.788;9.772;2022-12-16T08:36:55;27.60;;;14.43;;
6205;SDS011;3136;48.788;9.772;2022-12-16T08:39:39;25.27;;;13.97;;
6205;SDS011;3136;48.788;9.772;2022-12-16T08:42:23;22.73;;;14.80;;
6205;SDS011;3136;48.788;9.772;2022-12-16T08:45:07;27.63;;;15.13;;
6205;SDS011;3136;48.788;9.772;2022-12-16T08:47:51;26.03;;;14.90;;
6205;SDS011;3136;48.788;9.772;2022-12-16T08:50:36;27.13;;;15.80;;
6205;SDS011;3136;48.788;9.772;2022-12-16T08:53:20;27.97;;;15.07;;
6205;SDS011;3136;48.788;9.772;2022-12-16T08:56:04;27.87;;;14.90;;
6205;SDS011;3136;48.788;9.772;2022-12-16T08:58:48;31.60;;;15.10;;
6205;SDS011;3136;48.788;9.772;2022-12-16T09:01:33;24.27;;;14.13;;
6205;SDS011;3136;48.788;9.772;2022-12-16T09:04:17;24.37;;;13.43;;
6205;SDS011;3136;48.788;9.772;2022-12-16T09:07:01;24.17;;;13.03;;
6205;SDS011;3136;48.788;9.772;2022-12-16T09:09:45;25.77;;;14.00;;
6205;SDS011;3136;48.788;9.772;2022-12-16T09:12:29;23.43;;;13.40;;
6205;SDS011;3136;48.788;9.772;2022-12-16T09:15:13;25.17;;;13.00;;
6205;SDS011;3136;48.788;9.772;2022-12-16T09:17:57;21.20;;;12.90;;
6205;SDS011;3136;48.788;9.772;2022-12-16T09:20:41;23.27;;;12.97;;
6205;SDS011;3136;48.788;9.772;2022-12-16T09:23:25;22.20;;;12.73;;
6205;SDS011;3136;48.788;9.772;2022-12-16T09:26:09;24.17;;;13.13;;
6205;SDS011;3136;48.788;9.772;2022-12-16T09:28:54;22.77;;;12.63;;
6205;SDS011;3136;48.788;9.772;2022-12-16T09:31:38;27.33;;;13.00;;
6205;SDS011;3136;48.788;9.772;2022-12-16T09:34:22;19.67;;;11.87;;
6205;SDS011;3136;48.788;9.772;2022-12-16T09:37:06;20.43;;;11.63;;
6205;SDS011;3136;48.788;9.772;2022-12-16T09:39:50;23.50;;;12.43;;
6205;SDS011;3136;48.788;9.772;2022-12-16T09:42:39;20.10;;;11.73;;
6205;SDS011;3136;48.788;9.772;2022-12-16T09:48:19;22.47;;;12.47;;
6205;SDS011;3136;48.788;9.772;2022-12-16T09:51:26;23.20;;;13.37;;
6205;SDS011;3136;48.788;9.772;2022-12-16T09:54:12;28.53;;;14.57;;
6205;SDS011;3136;48.788;9.772;2022-12-16T09:57:00;22.67;;;13.50;;
6205;SDS011;3136;48.788;9.772;2022-12-16T09:59:53;28.87;;;14.37;;
6205;SDS011;3136;48.788;9.772;2022-12-16T10:02:42;25.67;;;14.30;;
6205;SDS011;3136;48.788;9.772;2022-12-16T10:05:29;26.17;;;14.17;;
6205;SDS011;3136;48.788;9.772;2022-12-16T10:09:09;24.67;;;14.47;;
6205;SDS011;3136;48.788;9.772;2022-12-16T10:12:02;27.93;;;14.70;;
6205;SDS011;3136;48.788;9.772;2022-12-16T10:14:56;23.93;;;13.73;;
6205;SDS011;3136;48.788;9.772;2022-12-16T10:17:45;26.60;;;13.03;;
6205;SDS011;3136;48.788;9.772;2022-12-16T10:20:43;26.43;;;13.73;;
6205;SDS011;3136;48.788;9.772;2022-12-16T10:27:00;25.93;;;12.73;;
6205;SDS011;3136;48.788;9.772;2022-12-16T10:29:57;22.23;;;12.33;;
6205;SDS011;3136;48.788;9.772;2022-12-16T10:32:46;26.87;;;12.53;;
6205;SDS011;3136;48.788;9.772;2022-12-16T10:35:41;23.23;;;12.90;;
6205;SDS011;3136;48.788;9.772;2022-12-16T10:41:26;22.80;;;11.77;;
6205;SDS011;3136;48.788;9.772;2022-12-16T10:44:18;21.97;;;12.80;;
6205;SDS011;3136;48.788;9.772;2022-12-16T10:47:11;23.30;;;12.67;;
6205;SDS011;3136;48.788;9.772;2022-12-16T10:49:56;21.20;;;12.07;;
6205;SDS011;3136;48.788;9.772;2022-12-16T10:59:15;21.83;;;12.80;;
6205;SDS011;3136;48.788;9.772;2022-12-16T11:02:18;24.37;;;13.37;;
6205;SDS011;3136;48.788;9.772;2022-12-16T11:11:26;21.97;;;11.53;;
6205;SDS011;3136;48.788;9.772;2022-12-16T11:14:28;23.07;;;11.37;;
6205;SDS011;3136;48.788;9.772;2022-12-16T11:17:23;23.77;;;11.47;;
6205;SDS011;3136;48.788;9.772;2022-12-16T11:20:22;19.20;;;10.97;;
6205;SDS011;3136;48.788;9.772;2022-12-16T11:23:19;21.33;;;11.77;;
6205;SDS011;3136;48.788;9.772;2022-12-16T11:26:13;19.33;;;10.73;;
6205;SDS011;3136;48.788;9.772;2022-12-16T11:29:14;17.63;;;10.00;;
6205;SDS011;3136;48.788;9.772;2022-12-16T11:32:02;21.30;;;11.47;;
6205;SDS011;3136;48.788;9.772;2022-12-16T11:35:11;19.53;;;11.10;;
6205;SDS011;3136;48.788;9.772;2022-12-16T11:37:58;22.07;;;11.27;;
6205;SDS011;3136;48.788;9.772;2022-12-16T11:40:44;18.87;;;10.77;;
6205;SDS011;3136;48.788;9.772;2022-12-16T11:43:28;20.70;;;10.83;;
6205;SDS011;3136;48.788;9.772;2022-12-16T11:46:20;20.67;;;11.20;;
6205;SDS011;3136;48.788;9.772;2022-12-16T11:49:18;19.93;;;10.83;;
6205;SDS011;3136;48.788;9.772;2022-12-16T11:52:10;20.43;;;11.10;;
6205;SDS011;3136;48.788;9.772;2022-12-16T11:58:15;23.40;;;11.57;;
6205;SDS011;3136;48.788;9.772;2022-12-16T12:04:29;19.90;;;11.50;;
6205;SDS011;3136;48.788;9.772;2022-12-16T12:07:19;22.33;;;11.27;;
6205;SDS011;3136;48.788;9.772;2022-12-16T12:12:51;23.53;;;11.53;;
6205;SDS011;3136;48.788;9.772;2022-12-16T12:16:11;17.77;;;10.63;;
6205;SDS011;3136;48.788;9.772;2022-12-16T12:19:37;23.97;;;11.40;;
6205;SDS011;3136;48.788;9.772;2022-12-16T12:22:36;18.60;;;11.57;;
6205;SDS011;3136;48.788;9.772;2022-12-16T12:25:36;19.70;;;11.77;;
6205;SDS011;3136;48.788;9.772;2022-12-16T12:31:34;20.10;;;11.30;;
6205;SDS011;3136;48.788;9.772;2022-12-16T12:34:56;19.33;;;11.40;;
6205;SDS011;3136;48.788;9.772;2022-12-16T12:37:56;20.23;;;10.80;;
6205;SDS011;3136;48.788;9.772;2022-12-16T12:40:59;18.73;;;10.73;;
6205;SDS011;3136;48.788;9.772;2022-12-16T12:47:03;22.80;;;11.93;;
6205;SDS011;3136;48.788;9.772;2022-12-16T12:49:55;20.80;;;11.03;;
6205;SDS011;3136;48.788;9.772;2022-12-16T12:58:58;20.90;;;11.23;;
6205;SDS011;3136;48.788;9.772;2022-12-16T13:01:46;21.67;;;11.57;;
6205;SDS011;3136;48.788;9.772;2022-12-16T13:04:32;21.47;;;12.77;;
6205;SDS011;3136;48.788;9.772;2022-12-16T13:07:17;21.10;;;11.90;;
6205;SDS011;3136;48.788;9.772;2022-12-16T13:16:09;19.40;;;11.20;;
6205;SDS011;3136;48.788;9.772;2022-12-16T13:28:36;20.03;;;11.10;;
6205;SDS011;3136;48.788;9.772;2022-12-16T13:31:23;19.23;;;11.13;;
6205;SDS011;3136;48.788;9.772;2022-12-16T13:37:00;22.70;;;11.40;;
6205;SDS011;3136;48.788;9.772;2022-12-16T13:46:42;21.23;;;11.67;;
6205;SDS011;3136;48.788;9.772;2022-12-16T13:52:42;26.07;;;12.30;;
6205;SDS011;3136;48.788;9.772;2022-12-16T13:55:38;20.13;;;11.03;;
6205;SDS011;3136;48.788;9.772;2022-12-16T13:58:36;20.20;;;11.37;;
6205;SDS011;3136;48.788;9.772;2022-12-16T14:04:38;19.53;;;10.97;;
6205;SDS011;3136;48.788;9.772;2022-12-16T14:07:27;19.43;;;11.60;;
6205;SDS011;3136;48.788;9.772;2022-12-16T14:10:21;19.87;;;11.53;;
6205;SDS011;3136;48.788;9.772;2022-12-16T14:19:24;19.83;;;11.47;;
6205;SDS011;3136;48.788;9.772;2022-12-16T14:25:30;19.50;;;11.23;;
6205;SDS011;3136;48.788;9.772;2022-12-16T14:28:26;20.07;;;11.33;;
6205;SDS011;3136;48.788;9.772;2022-12-16T14:31:39;21.83;;;12.03;;
6205;SDS011;3136;48.788;9.772;2022-12-16T14:34:33;19.30;;;11.10;;
6205;SDS011;3136;48.788;9.772;2022-12-16T14:40:21;22.10;;;11.30;;
6205;SDS011;3136;48.788;9.772;2022-12-16T14:43:14;23.37;;;11.67;;
6205;SDS011;3136;48.788;9.772;2022-12-16T14:46:03;20.63;;;10.93;;
6205;SDS011;3136;48.788;9.772;2022-12-16T14:48:48;20.77;;;10.57;;
6205;SDS011;3136;48.788;9.772;2022-12-16T14:51:37;19.70;;;10.57;;
6205;SDS011;3136;48.788;9.772;2022-12-16T14:54:42;20.07;;;10.50;;
6205;SDS011;3136;48.788;9.772;2022-12-16T14:57:27;18.13;;;10.63;;
6205;SDS011;3136;48.788;9.772;2022-12-16T15:00:17;18.40;;;10.23;;
6205;SDS011;3136;48.788;9.772;2022-12-16T15:03:09;18.20;;;10.20;;
6205;SDS011;3136;48.788;9.772;2022-12-16T15:05:57;21.10;;;10.60;;
6205;SDS011;3136;48.788;9.772;2022-12-16T15:08:51;16.73;;;10.37;;
6205;SDS011;3136;48.788;9.772;2022-12-16T15:11:39;18.80;;;9.83;;
6205;SDS011;3136;48.788;9.772;2022-12-16T15:14:28;21.43;;;9.67;;
6205;SDS011;3136;48.788;9.772;2022-12-16T15:17:22;20.77;;;10.10;;
6205;SDS011;3136;48.788;9.772;2022-12-16T15:20:27;19.03;;;10.20;;
6205;SDS011;3136;48.788;9.772;2022-12-16T15:23:24;18.17;;;9.87;;
6205;SDS011;3136;48.788;9.772;2022-12-16T15:26:21;17.97;;;10.43;;
6205;SDS011;3136;48.788;9.772;2022-12-16T15:35:07;18.47;;;10.17;;
6205;SDS011;3136;48.788;9.772;2022-12-16T15:37:52;20.43;;;10.93;;
6205;SDS011;3136;48.788;9.772;2022-12-16T15:40:36;17.27;;;10.23;;
6205;SDS011;3136;48.788;9.772;2022-12-16T15:43:27;17.23;;;10.00;;
6205;SDS011;3136;48.788;9.772;2022-12-16T15:49:21;18.17;;;10.50;;
6205;SDS011;3136;48.788;9.772;2022-12-16T15:55:27;17.87;;;10.60;;
6205;SDS011;3136;48.788;9.772;2022-12-16T16:01:07;17.93;;;10.87;;
6205;SDS011;3136;48.788;9.772;2022-12-16T16:03:52;20.70;;;11.60;;
6205;SDS011;3136;48.788;9.772;2022-12-16T16:06:50;17.37;;;10.70;;
6205;SDS011;3136;48.788;9.772;2022-12-16T16:09:49;22.73;;;11.40;;
6205;SDS011;3136;48.788;9.772;2022-12-16T16:12:33;22.27;;;15.80;;
6205;SDS011;3136;48.788;9.772;2022-12-16T16:15:17;19.80;;;10.43;;
6205;SDS011;3136;48.788;9.772;2022-12-16T16:18:02;18.53;;;10.33;;
6205;SDS011;3136;48.788;9.772;2022-12-16T16:20:48;17.27;;;10.10;;
6205;SDS011;3136;48.788;9.772;2022-12-16T16:23:34;18.13;;;10.67;;
6205;SDS011;3136;48.788;9.772;2022-12-16T16:26:19;18.43;;;10.37;;
6205;SDS011;3136;48.788;9.772;2022-12-16T16:29:05;17.23;;;10.07;;
6205;SDS011;3136;48.788;9.772;2022-12-16T16:31:51;21.43;;;10.30;;
6205;SDS011;3136;48.788;9.772;2022-12-16T16:34:36;19.17;;;11.00;;
6205;SDS011;3136;48.788;9.772;2022-12-16T16:37:20;19.50;;;11.20;;
6205;SDS011;3136;48.788;9.772;2022-12-16T16:40:11;19.37;;;10.20;;
6205;SDS011;3136;48.788;9.772;2022-12-16T16:43:11;19.58;;;12.95;;
6205;SDS011;3136;48.788;9.772;2022-12-16T16:45:55;18.53;;;11.60;;
6205;SDS011;3136;48.788;9.772;2022-12-16T16:48:40;18.77;;;10.77;;
6205;SDS011;3136;48.788;9.772;2022-12-16T16:51:24;15.83;;;10.17;;
6205;SDS011;3136;48.788;9.772;2022-12-16T16:54:09;21.47;;;10.23;;
6205;SDS011;3136;48.788;9.772;2022-12-16T16:56:53;18.30;;;10.60;;
6205;SDS011;3136;48.788;9.772;2022-12-16T16:59:37;22.03;;;10.97;;
6205;SDS011;3136;48.788;9.772;2022-12-16T17:02:22;20.23;;;10.00;;
6205;SDS011;3136;48.788;9.772;2022-12-16T17:05:07;21.90;;;10.40;;
6205;SDS011;3136;48.788;9.772;2022-12-16T17:07:59;17.77;;;10.00;;
6205;SDS011;3136;48.788;9.772;2022-12-16T17:10:43;17.73;;;10.33;;
6205;SDS011;3136;48.788;9.772;2022-12-16T17:13:29;21.00;;;9.70;;
6205;SDS011;3136;48.788;9.772;2022-12-16T17:16:13;19.83;;;10.73;;
6205;SDS011;3136;48.788;9.772;2022-12-16T17:18:57;18.20;;;10.10;;
6205;SDS011;3136;48.788;9.772;2022-12-16T17:21:44;19.13;;;10.10;;
6205;SDS011;3136;48.788;9.772;2022-12-16T17:24:29;19.80;;;10.67;;
6205;SDS011;3136;48.788;9.772;2022-12-16T17:27:20;20.03;;;10.80;;
6205;SDS011;3136;48.788;9.772;2022-12-16T17:30:12;18.43;;;10.50;;
6205;SDS011;3136;48.788;9.772;2022-12-16T17:33:02;18.47;;;10.77;;
6205;SDS011;3136;48.788;9.772;2022-12-16T17:35:47;19.70;;;10.87;;
6205;SDS011;3136;48.788;9.772;2022-12-16T17:38:39;20.13;;;10.67;;
6205;SDS011;3136;48.788;9.772;2022-12-16T17:41:29;24.20;;;11.77;;
6205;SDS011;3136;48.788;9.772;2022-12-16T17:44:14;23.70;;;11.00;;
6205;SDS011;3136;48.788;9.772;2022-12-16T17:46:59;20.00;;;10.47;;
6205;SDS011;3136;48.788;9.772;2022-12-16T17:49:43;18.80;;;10.87;;
6205;SDS011;3136;48.788;9.772;2022-12-16T17:52:27;18.57;;;10.47;;
6205;SDS011;3136;48.788;9.772;2022-12-16T17:55:12;19.13;;;10.97;;
6205;SDS011;3136;48.788;9.772;2022-12-16T17:57:56;17.93;;;10.20;;
6205;SDS011;3136;48.788;9.772;2022-12-16T18:00:40;21.00;;;11.17;;
6205;SDS011;3136;48.788;9.772;2022-12-16T18:03:25;25.33;;;11.07;;
6205;SDS011;3136;48.788;9.772;2022-12-16T18:06:09;20.73;;;11.10;;
6205;SDS011;3136;48.788;9.772;2022-12-16T18:08:53;22.37;;;10.83;;
6205;SDS011;3136;48.788;9.772;2022-12-16T18:11:37;18.93;;;10.40;;
6205;SDS011;3136;48.788;9.772;2022-12-16T18:14:21;18.37;;;10.77;;
6205;SDS011;3136;48.788;9.772;2022-12-16T18:17:05;19.73;;;10.43;;
6205;SDS011;3136;48.788;9.772;2022-12-16T18:19:49;17.10;;;10.80;;
6205;SDS011;3136;48.788;9.772;2022-12-16T18:22:33;19.10;;;11.00;;
6205;SDS011;3136;48.788;9.772;2022-12-16T18:25:17;20.87;;;11.57;;
6205;SDS011;3136;48.788;9.772;2022-12-16T18:28:01;21.03;;;11.07;;
6205;SDS011;3136;48.788;9.772;2022-12-16T18:30:46;19.53;;;10.73;;
6205;SDS011;3136;48.788;9.772;2022-12-16T18:33:30;23.83;;;11.30;;
6205;SDS011;3136;48.788;9.772;2022-12-16T18:36:15;20.43;;;11.30;;
6205;SDS011;3136;48.788;9.772;2022-12-16T18:38:59;17.93;;;10.27;;